createdAt,value
2024-01-24T00:01:12.923Z,98503.38
2024-01-24T00:03:41.508Z,98498.09
2024-01-24T00:06:09.918Z,98480.66
2024-01-24T00:08:38.221Z,98475.41
2024-01-24T00:11:07.620Z,98461.38
2024-01-24T00:13:36.073Z,98464.84
2024-01-24T00:16:05.512Z,98460.41
2024-01-24T00:18:35.371Z,98452.59
2024-01-24T00:21:04.676Z,98465.69
2024-01-24T00:23:33.057Z,98465.69
2024-01-24T00:26:01.411Z,98465.59
2024-01-24T00:28:31.037Z,98461.25
2024-01-24T00:30:59.446Z,98447.31
2024-01-24T00:33:30.468Z,98448.19
2024-01-24T00:36:00.287Z,98443.72
2024-01-24T00:38:28.738Z,98454.28
2024-01-24T00:40:57.420Z,98454.16
2024-01-24T00:43:27.290Z,98442.91
2024-01-24T00:45:56.195Z,98439.28
2024-01-24T00:48:24.704Z,98435.81
2024-01-24T00:50:54.813Z,98433.06
2024-01-24T00:53:24.961Z,98440.97
2024-01-24T00:55:53.310Z,98441.84
2024-01-24T00:58:21.601Z,98441.84
2024-01-24T01:00:50.156Z,98449.75
2024-01-24T01:03:18.698Z,98454.91
2024-01-24T01:05:47.497Z,98449.53
2024-01-24T01:08:15.980Z,98445.09
2024-01-24T01:10:45.676Z,98445.91
2024-01-24T01:13:14.086Z,98438.84
2024-01-24T01:15:43.181Z,98450.28
2024-01-24T01:18:12.341Z,98438.75
2024-01-24T01:20:40.661Z,98421.13
2024-01-24T01:23:11.506Z,98419.53
2024-01-24T01:25:39.822Z,98429.16
2024-01-24T01:28:09.652Z,98428.06
2024-01-24T01:30:37.972Z,98411.28
2024-01-24T01:33:07.180Z,98395.22
2024-01-24T01:35:36.851Z,98391.13
2024-01-24T01:38:05.710Z,98374.31
2024-01-24T01:40:34.047Z,98367.25
2024-01-24T01:43:02.555Z,98362.59
2024-01-24T01:45:32.454Z,98368.59
2024-01-24T01:48:01.021Z,98373.53
2024-01-24T01:50:29.394Z,98368.13
2024-01-24T01:52:57.889Z,98363.72
2024-01-24T01:55:26.393Z,98359.13
2024-01-24T01:57:56.688Z,98360.09
2024-01-24T02:00:25.134Z,98348.91
2024-01-24T02:02:57.565Z,98344.50
2024-01-24T02:05:26.268Z,98333.06
2024-01-24T02:07:54.730Z,98332.25
2024-01-24T02:10:23.303Z,98335.59
2024-01-24T02:12:51.764Z,98340.78
2024-01-24T02:15:20.243Z,98349.31
2024-01-24T02:17:48.619Z,98355.34
2024-01-24T02:20:19.634Z,98354.25
2024-01-24T02:22:47.987Z,98354.03
2024-01-24T02:25:17.739Z,98358.22
2024-01-24T02:27:47.847Z,98332.56
2024-01-24T02:30:17.237Z,98327.28
2024-01-24T02:32:48.637Z,98314.91
2024-01-24T02:35:18.235Z,98321.03
2024-01-24T02:37:46.639Z,98309.63
2024-01-24T02:40:15.142Z,98297.25
2024-01-24T02:42:44.956Z,98296.44
2024-01-24T02:45:13.494Z,98288.63
2024-01-24T02:47:42.155Z,98281.53
2024-01-24T02:50:14.795Z,98279.00
2024-01-24T02:52:43.451Z,98278.88
2024-01-24T02:55:16.876Z,98272.91
2024-01-24T02:57:49.022Z,98272.06
2024-01-24T03:00:18.764Z,98270.25
2024-01-24T03:02:47.410Z,98264.13
2024-01-24T03:05:15.800Z,98272.06
2024-01-24T03:07:44.226Z,98261.50
2024-01-24T03:10:12.975Z,98251.91
2024-01-24T03:12:41.455Z,98258.09
2024-01-24T03:15:11.909Z,98266.16
2024-01-24T03:17:40.640Z,98270.50
2024-01-24T03:20:11.870Z,98272.28
2024-01-24T03:22:40.279Z,98262.56
2024-01-24T03:25:09.928Z,98264.34
2024-01-24T03:27:40.453Z,98259.94
2024-01-24T03:30:12.634Z,98255.59
2024-01-24T03:32:41.083Z,98257.41
2024-01-24T03:35:12.667Z,98260.06
2024-01-24T03:37:41.015Z,98251.38
2024-01-24T03:40:10.993Z,98247.91
2024-01-24T03:42:39.506Z,98241.78
2024-01-24T03:45:11.144Z,98229.53
2024-01-24T03:47:42.230Z,98226.06
2024-01-24T03:50:11.487Z,98245.50
2024-01-24T03:52:39.764Z,98248.25
2024-01-24T03:55:08.987Z,98256.16
2024-01-24T03:57:37.534Z,98247.44
2024-01-24T04:00:08.276Z,98245.72
2024-01-24T04:02:38.099Z,98235.16
2024-01-24T04:05:07.637Z,98244.06
2024-01-24T04:07:36.158Z,98237.91
2024-01-24T04:10:05.776Z,98236.25
2024-01-24T04:12:34.172Z,98233.72
2024-01-24T04:15:02.595Z,98226.78
2024-01-24T04:17:31.764Z,98218.13
2024-01-24T04:20:01.570Z,98227.97
2024-01-24T04:22:29.895Z,98228.09
2024-01-24T04:24:59.687Z,98241.28
2024-01-24T04:27:28.747Z,98252.78
2024-01-24T04:29:57.294Z,98223.88
2024-01-24T04:32:25.792Z,98221.34
2024-01-24T04:34:57.877Z,98202.88
2024-01-24T04:37:28.077Z,98202.97
2024-01-24T04:39:56.416Z,98202.16
2024-01-24T04:42:24.745Z,98218.00
2024-01-24T04:44:53.266Z,98224.22
2024-01-24T04:47:22.552Z,98214.50
2024-01-24T04:49:50.954Z,98220.75
2024-01-24T04:52:19.399Z,98226.97
2024-01-24T04:54:49.267Z,98225.41
2024-01-24T04:57:17.702Z,98209.56
2024-01-24T04:59:52.686Z,98208.72
2024-01-24T05:02:24.714Z,98209.81
2024-01-24T05:04:53.202Z,98208.13
2024-01-24T05:07:21.746Z,98217.84
2024-01-24T05:09:51.899Z,98219.63
2024-01-24T05:12:20.322Z,98228.63
2024-01-24T05:14:48.693Z,98233.06
2024-01-24T05:17:17.113Z,98224.31
2024-01-24T05:19:45.546Z,98235.91
2024-01-24T05:22:15.298Z,98241.31
2024-01-24T05:24:46.957Z,98242.38
2024-01-24T05:27:16.937Z,98229.31
2024-01-24T05:29:50.565Z,98227.03
2024-01-24T05:32:18.965Z,98210.56
2024-01-24T05:34:47.762Z,98221.34
2024-01-24T05:37:16.417Z,98213.66
2024-01-24T05:39:48.598Z,98222.53
2024-01-24T05:42:19.191Z,98227.94
2024-01-24T05:44:47.794Z,98220.00
2024-01-24T05:47:16.755Z,98210.44
2024-01-24T05:49:48.108Z,98208.88
2024-01-24T05:52:16.658Z,98195.81
2024-01-24T05:54:45.320Z,98202.00
2024-01-24T05:57:13.718Z,98205.63
2024-01-24T05:59:43.555Z,98203.09
2024-01-24T06:02:12.142Z,98210.16
2024-01-24T06:04:46.324Z,98213.97
2024-01-24T06:07:15.506Z,98204.38
2024-01-24T06:09:43.943Z,98207.16
2024-01-24T06:12:12.317Z,98185.19
2024-01-24T06:14:42.145Z,98187.94
2024-01-24T06:17:10.536Z,98186.28
2024-01-24T06:19:38.921Z,98187.19
2024-01-24T06:22:10.237Z,98184.66
2024-01-24T06:24:39.655Z,98177.69
2024-01-24T06:27:10.888Z,98180.34
2024-01-24T06:30:16.335Z,98170.13
2024-01-24T06:32:30.352Z,98184.06
2024-01-24T06:34:59.345Z,98185.94
2024-01-24T06:37:27.780Z,98182.47
2024-01-24T06:39:56.216Z,98186.91
2024-01-24T06:42:24.839Z,98189.56
2024-01-24T06:44:53.222Z,98176.47
2024-01-24T06:47:22.033Z,98185.31
2024-01-24T06:49:52.621Z,98179.34
2024-01-24T06:52:20.981Z,98161.81
2024-01-24T06:54:49.594Z,98156.78
2024-01-24T06:57:18.944Z,98157.63
2024-01-24T06:59:47.878Z,98150.56
2024-01-24T07:02:16.334Z,98157.63
2024-01-24T07:04:45.075Z,98171.66
2024-01-24T07:07:15.814Z,98159.63
2024-01-24T07:09:44.384Z,98174.28
2024-01-24T07:12:14.861Z,98166.50
2024-01-24T07:14:43.289Z,98159.53
2024-01-24T07:17:12.379Z,98166.50
2024-01-24T07:19:41.065Z,98179.69
2024-01-24T07:22:09.701Z,98174.53
2024-01-24T07:24:39.705Z,98172.81
2024-01-24T07:27:08.190Z,98152.69
2024-01-24T07:29:36.656Z,98139.50
2024-01-24T07:32:05.955Z,98127.31
2024-01-24T07:34:34.539Z,98128.97
2024-01-24T07:37:03.261Z,98120.31
2024-01-24T07:39:31.809Z,98125.38
2024-01-24T07:42:01.800Z,98128.84
2024-01-24T07:44:30.234Z,98116.31
2024-01-24T07:47:02.852Z,98113.31
2024-01-24T07:49:33.995Z,98105.88
2024-01-24T07:52:04.295Z,98111.59
2024-01-24T07:54:32.756Z,98109.22
2024-01-24T07:57:05.199Z,98112.09
2024-01-24T07:59:33.918Z,98107.34
2024-01-24T08:02:03.888Z,98104.94
2024-01-24T08:04:33.395Z,98107.84
2024-01-24T08:07:02.413Z,98106.38
2024-01-24T08:09:31.230Z,98105.09
2024-01-24T08:11:59.856Z,98098.38
2024-01-24T08:14:30.068Z,98085.56
2024-01-24T08:17:03.538Z,98073.53
2024-01-24T08:19:32.134Z,98070.41
2024-01-24T08:22:01.477Z,98056.84
2024-01-24T08:24:30.058Z,98061.66
2024-01-24T08:26:58.679Z,98050.38
2024-01-24T08:29:36.062Z,98041.56
2024-01-24T08:32:07.940Z,98041.41
2024-01-24T08:34:38.583Z,98024.06
2024-01-24T08:37:07.920Z,98015.63
2024-01-24T08:39:36.379Z,98016.13
2024-01-24T08:42:05.792Z,98002.31
2024-01-24T08:44:34.358Z,97981.31
2024-01-24T08:47:03.081Z,98006.16
2024-01-24T08:49:33.756Z,98016.28
2024-01-24T08:52:02.378Z,98026.78
2024-01-24T08:54:31.252Z,98042.44
2024-01-24T08:56:59.629Z,98048.47
2024-01-24T08:59:28.008Z,98042.50
2024-01-24T09:01:58.329Z,98051.78
2024-01-24T09:04:27.419Z,98052.38
2024-01-24T09:07:00.384Z,98048.75
2024-01-24T09:09:31.962Z,98038.19
2024-01-24T09:12:01.282Z,98034.44
2024-01-24T09:14:30.411Z,98045.88
2024-01-24T09:16:59.093Z,98036.81
2024-01-24T09:19:27.575Z,98037.91
2024-01-24T09:21:57.164Z,98053.97
2024-01-24T09:24:27.493Z,98048.81
2024-01-24T09:26:56.399Z,98061.34
2024-01-24T09:29:24.903Z,98065.41
2024-01-24T09:31:53.484Z,98040.13
2024-01-24T09:34:22.373Z,98038.03
2024-01-24T09:36:50.951Z,98048.78
2024-01-24T09:39:19.949Z,98055.75
2024-01-24T09:41:53.995Z,98043.47
2024-01-24T09:44:25.308Z,98054.88
2024-01-24T09:46:55.276Z,98055.13
2024-01-24T09:49:24.154Z,98040.31
2024-01-24T09:51:55.159Z,98043.91
2024-01-24T09:54:25.053Z,98049.34
2024-01-24T09:56:55.617Z,98049.56
2024-01-24T09:59:24.046Z,98050.50
2024-01-24T10:01:52.751Z,98040.41
2024-01-24T10:04:21.383Z,98035.66
2024-01-24T10:06:50.995Z,98043.19
2024-01-24T10:09:20.628Z,98037.81
2024-01-24T10:11:49.265Z,98041.72
2024-01-24T10:14:21.111Z,98034.09
2024-01-24T10:16:49.550Z,98025.38
2024-01-24T10:19:18.035Z,98025.66
2024-01-24T10:21:46.703Z,98019.13
2024-01-24T10:24:15.182Z,98015.91
2024-01-24T10:26:46.687Z,98019.56
2024-01-24T10:29:15.411Z,98004.25
2024-01-24T10:31:46.172Z,98003.91
2024-01-24T10:34:14.795Z,98011.53
2024-01-24T10:36:46.656Z,98004.97
2024-01-24T10:39:19.073Z,97995.69
2024-01-24T10:41:56.176Z,98006.41
2024-01-24T10:44:27.766Z,98004.66
2024-01-24T10:46:58.166Z,97999.53
2024-01-24T10:49:26.882Z,98008.91
2024-01-24T10:51:57.312Z,97999.25
2024-01-24T10:54:26.874Z,97989.41
2024-01-24T10:56:58.058Z,97990.94
2024-01-24T10:59:29.764Z,98000.34
2024-01-24T11:02:00.243Z,97990.84
2024-01-24T11:04:30.459Z,97985.16
2024-01-24T11:07:04.076Z,97980.66
2024-01-24T11:09:38.314Z,97973.66
2024-01-24T11:12:08.061Z,97979.47
2024-01-24T11:14:37.734Z,97965.59
2024-01-24T11:17:07.953Z,97971.91
2024-01-24T11:19:36.652Z,97973.44
2024-01-24T11:22:17.172Z,97980.44
2024-01-24T11:24:55.436Z,97972.88
2024-01-24T11:27:31.622Z,97972.75
2024-01-24T11:30:03.341Z,97963.88
2024-01-24T11:33:02.368Z,97966.09
2024-01-24T11:35:37.213Z,97944.56
2024-01-24T11:38:31.521Z,97946.56
2024-01-24T11:41:04.908Z,97932.88
2024-01-24T11:43:37.660Z,97938.91
2024-01-24T11:46:10.363Z,97951.97
2024-01-24T11:48:41.855Z,97943.78
2024-01-24T11:51:12.557Z,97939.13
2024-01-24T11:53:41.006Z,97921.94
2024-01-24T11:56:15.554Z,97913.91
2024-01-24T11:58:44.216Z,97937.47
2024-01-24T12:01:13.914Z,97941.28
2024-01-24T12:03:51.620Z,97936.44
2024-01-24T12:06:20.769Z,97942.81
2024-01-24T12:08:50.443Z,97929.94
2024-01-24T12:11:20.695Z,97931.31
2024-01-24T12:13:49.387Z,97943.31
2024-01-24T12:16:18.034Z,97913.28
2024-01-24T12:18:46.719Z,97928.78
2024-01-24T12:21:17.822Z,97942.97
2024-01-24T12:23:48.934Z,97948.97
2024-01-24T12:26:18.203Z,97955.31
2024-01-24T12:28:48.807Z,97937.13
2024-01-24T12:31:18.606Z,97954.66
2024-01-24T12:33:47.396Z,97966.31
2024-01-24T12:36:18.226Z,97964.28
2024-01-24T12:38:46.751Z,97939.94
2024-01-24T12:41:15.181Z,97945.28
2024-01-24T12:43:43.800Z,97918.59
2024-01-24T12:46:14.159Z,97949.06
2024-01-24T12:48:42.987Z,97942.94
2024-01-24T12:51:11.785Z,97971.41
2024-01-24T12:53:41.638Z,97975.56
2024-01-24T12:56:10.677Z,97967.44
2024-01-24T12:58:39.257Z,97958.31
2024-01-24T13:01:09.074Z,97955.09
2024-01-24T13:03:37.614Z,97979.97
2024-01-24T13:06:06.802Z,97971.16
2024-01-24T13:08:35.643Z,98007.69
2024-01-24T13:11:05.837Z,97986.66
2024-01-24T13:13:34.305Z,97993.69
2024-01-24T13:16:04.206Z,97993.53
2024-01-24T13:18:32.859Z,97996.69
2024-01-24T13:21:01.442Z,97995.19
2024-01-24T13:23:29.969Z,97998.03
2024-01-24T13:25:59.264Z,98022.41
2024-01-24T13:28:29.103Z,98021.19
2024-01-24T13:30:57.786Z,98026.88
2024-01-24T13:33:26.394Z,98033.41
2024-01-24T13:35:55.031Z,98038.72
2024-01-24T13:38:24.286Z,98039.72
2024-01-24T13:40:52.934Z,98048.88
2024-01-24T13:43:24.035Z,98047.53
2024-01-24T13:46:07.437Z,98054.38
2024-01-24T13:48:35.946Z,98056.72
2024-01-24T13:51:04.881Z,98060.34
2024-01-24T13:53:33.350Z,98052.03
2024-01-24T13:56:04.485Z,98050.63
2024-01-24T13:58:33.127Z,98057.81
2024-01-24T14:01:03.658Z,98048.78
2024-01-24T14:03:32.488Z,98058.47
2024-01-24T14:06:01.173Z,98060.63
2024-01-24T14:08:32.497Z,98044.59
2024-01-24T14:11:01.178Z,98060.25
2024-01-24T14:13:29.989Z,98066.25
2024-01-24T14:15:59.109Z,98076.19
2024-01-24T14:18:29.038Z,98063.84
2024-01-24T14:20:57.496Z,98069.66
2024-01-24T14:23:26.034Z,98090.31
2024-01-24T14:25:54.513Z,98086.13
2024-01-24T14:28:22.943Z,98088.63
2024-01-24T14:30:51.376Z,98093.75
2024-01-24T14:33:27.333Z,98089.22
2024-01-24T14:36:03.843Z,98096.25
2024-01-24T14:38:32.331Z,98095.56
2024-01-24T14:41:00.746Z,98092.84
2024-01-24T14:43:32.260Z,98088.66
2024-01-24T14:46:00.895Z,98096.00
2024-01-24T14:48:29.941Z,98112.00
2024-01-24T14:50:58.670Z,98101.47
2024-01-24T14:53:28.531Z,98108.47
2024-01-24T14:55:56.972Z,98105.97
2024-01-24T14:58:25.628Z,98111.13
2024-01-24T15:00:54.334Z,98117.81
2024-01-24T15:03:22.850Z,98114.97
2024-01-24T15:05:51.321Z,98123.78
2024-01-24T15:08:20.824Z,98126.97
2024-01-24T15:10:52.509Z,98123.94
2024-01-24T15:13:23.656Z,98132.22
2024-01-24T15:15:52.252Z,98140.63
2024-01-24T15:18:21.544Z,98144.28
2024-01-24T15:20:59.030Z,98144.28
2024-01-24T15:23:35.868Z,98140.91
2024-01-24T15:26:06.065Z,98137.72
2024-01-24T15:28:35.887Z,98141.53
2024-01-24T15:31:06.530Z,98134.25
2024-01-24T15:33:35.355Z,98147.19
2024-01-24T15:36:04.171Z,98146.78
2024-01-24T15:38:32.684Z,98150.47
2024-01-24T15:41:01.440Z,98160.72
2024-01-24T15:43:31.421Z,98146.03
2024-01-24T15:46:00.030Z,98151.78
2024-01-24T15:48:28.622Z,98164.53
2024-01-24T15:50:57.338Z,98177.13
2024-01-24T15:53:25.966Z,98181.81
2024-01-24T15:55:55.085Z,98178.75
2024-01-24T15:58:23.587Z,98180.91
2024-01-24T16:00:53.892Z,98183.88
2024-01-24T16:03:27.103Z,98202.97
2024-01-24T16:05:55.635Z,98205.09
2024-01-24T16:08:24.555Z,98194.88
2024-01-24T16:10:53.215Z,98194.63
2024-01-24T16:13:22.479Z,98199.59
2024-01-24T16:15:53.338Z,98191.66
2024-01-24T16:18:21.973Z,98196.59
2024-01-24T16:20:50.486Z,98201.69
2024-01-24T16:23:19.452Z,98201.28
2024-01-24T16:25:47.891Z,98229.91
2024-01-24T16:28:16.535Z,98224.34
2024-01-24T16:30:45.233Z,98234.59
2024-01-24T16:33:18.793Z,98235.63
2024-01-24T16:35:48.061Z,98230.16
2024-01-24T16:38:16.524Z,98237.31
2024-01-24T16:40:45.076Z,98244.72
2024-01-24T16:43:13.785Z,98259.72
2024-01-24T16:45:42.372Z,98267.44
2024-01-24T16:48:10.929Z,98269.25
2024-01-24T16:50:41.326Z,98259.19
2024-01-24T16:53:12.898Z,98275.28
2024-01-24T16:55:41.421Z,98273.47
2024-01-24T16:58:10.633Z,98278.25
2024-01-24T17:00:39.555Z,98283.56
2024-01-24T17:03:08.168Z,98285.50
2024-01-24T17:05:36.637Z,98294.47
2024-01-24T17:08:07.893Z,98300.59
2024-01-24T17:10:36.329Z,98311.09
2024-01-24T17:13:05.789Z,98306.78
2024-01-24T17:15:34.455Z,98305.78
2024-01-24T17:18:05.188Z,98320.19
2024-01-24T17:20:34.131Z,98322.84
2024-01-24T17:23:02.616Z,98316.28
2024-01-24T17:25:32.495Z,98313.63
2024-01-24T17:28:01.218Z,98328.44
2024-01-24T17:30:29.953Z,98332.94
2024-01-24T17:32:59.499Z,98335.44
2024-01-24T17:35:28.024Z,98334.47
2024-01-24T17:37:56.466Z,98350.13
2024-01-24T17:40:25.251Z,98360.22
2024-01-24T17:42:55.258Z,98357.13
2024-01-24T17:45:23.829Z,98347.19
2024-01-24T17:47:52.644Z,98356.81
2024-01-24T17:50:21.789Z,98359.75
2024-01-24T17:52:50.522Z,98353.63
2024-01-24T17:55:21.604Z,98364.38
2024-01-24T17:57:50.319Z,98368.00
2024-01-24T18:00:21.873Z,98370.25
2024-01-24T18:02:50.455Z,98377.63
2024-01-24T18:05:19.505Z,98384.22
2024-01-24T18:07:48.379Z,98393.41
2024-01-24T18:10:17.538Z,98398.31
2024-01-24T18:12:46.035Z,98404.88
2024-01-24T18:15:14.706Z,98404.41
2024-01-24T18:17:44.675Z,98409.28
2024-01-24T18:20:13.464Z,98415.84
2024-01-24T18:22:43.108Z,98428.78
2024-01-24T18:25:11.921Z,98433.66
2024-01-24T18:27:40.573Z,98439.91
2024-01-24T18:30:10.807Z,98446.94
2024-01-24T18:32:39.417Z,98448.84
2024-01-24T18:35:10.197Z,98457.53
2024-01-24T18:37:42.208Z,98446.94
2024-01-24T18:40:12.378Z,98449.59
2024-01-24T18:42:41.427Z,98446.22
2024-01-24T18:45:13.039Z,98450.94
2024-01-24T18:47:42.135Z,98446.72
2024-01-24T18:50:12.554Z,98447.00
2024-01-24T18:52:43.145Z,98432.31
2024-01-24T18:55:13.750Z,98434.25
2024-01-24T18:57:42.648Z,98444.31
2024-01-24T19:00:12.650Z,98443.25
2024-01-24T19:02:41.393Z,98451.59
2024-01-24T19:05:19.326Z,98456.78
2024-01-24T19:07:52.495Z,98453.84
2024-01-24T19:10:21.001Z,98445.03
2024-01-24T19:12:51.070Z,98453.97
2024-01-24T19:15:21.033Z,98452.66
2024-01-24T19:17:50.614Z,98452.50
2024-01-24T19:20:20.799Z,98443.75
2024-01-24T19:22:49.386Z,98450.97
2024-01-24T19:25:17.906Z,98447.34
2024-01-24T19:27:46.898Z,98457.13
2024-01-24T19:30:16.149Z,98454.47
2024-01-24T19:32:44.715Z,98461.72
2024-01-24T19:35:13.264Z,98462.69
2024-01-24T19:37:43.561Z,98460.41
2024-01-24T19:40:13.736Z,98456.31
2024-01-24T19:42:42.645Z,98459.69
2024-01-24T19:45:12.676Z,98462.75
2024-01-24T19:47:41.321Z,98469.16
2024-01-24T19:50:11.847Z,98466.38
2024-01-24T19:52:40.754Z,98468.16
2024-01-24T19:55:11.671Z,98461.06
2024-01-24T19:57:41.796Z,98463.84
2024-01-24T20:00:13.685Z,98479.75
2024-01-24T20:02:42.117Z,98474.44
2024-01-24T20:05:10.851Z,98464.69
2024-01-24T20:07:39.766Z,98464.09
2024-01-24T20:10:11.211Z,98461.44
2024-01-24T20:12:40.049Z,98462.56
2024-01-24T20:15:10.818Z,98455.56
2024-01-24T20:17:46.156Z,98459.06
2024-01-24T20:20:16.110Z,98459.19
2024-01-24T20:22:44.796Z,98453.41
2024-01-24T20:25:14.712Z,98456.31
2024-01-24T20:27:43.826Z,98465.00
2024-01-24T20:30:13.583Z,98458.13
2024-01-24T20:32:45.706Z,98465.38
2024-01-24T20:35:25.284Z,98472.34
2024-01-24T20:37:53.876Z,98481.16
2024-01-24T20:40:23.726Z,98477.78
2024-01-24T20:42:52.349Z,98480.34
2024-01-24T20:45:20.909Z,98482.63
2024-01-24T20:47:52.915Z,98480.22
2024-01-24T20:50:26.271Z,98479.25
2024-01-24T20:52:54.913Z,98483.00
2024-01-24T20:55:24.995Z,98474.47
2024-01-24T20:57:53.678Z,98481.44
2024-01-24T21:00:22.625Z,98480.47
2024-01-24T21:02:53.150Z,98483.13
2024-01-24T21:05:22.836Z,98494.22
2024-01-24T21:07:51.670Z,98506.28
2024-01-24T21:10:22.144Z,98508.69
2024-01-24T21:12:52.917Z,98508.94
2024-01-24T21:15:21.346Z,98492.81
2024-01-24T21:17:51.535Z,98501.38
2024-01-24T21:20:20.253Z,98499.44
2024-01-24T21:22:50.328Z,98502.44
2024-01-24T21:25:19.162Z,98491.03
2024-01-24T21:27:48.889Z,98505.59
2024-01-24T21:30:19.595Z,98509.34
2024-01-24T21:32:48.566Z,98514.50
2024-01-24T21:35:16.880Z,98510.41
2024-01-24T21:37:45.485Z,98500.78
2024-01-24T21:40:14.915Z,98506.94
2024-01-24T21:42:43.822Z,98522.59
2024-01-24T21:45:12.804Z,98521.97
2024-01-24T21:47:42.755Z,98518.47
2024-01-24T21:50:12.841Z,98515.81
2024-01-24T21:52:41.230Z,98503.19
2024-01-24T21:55:10.912Z,98514.50
2024-01-24T21:57:39.529Z,98505.84
2024-01-24T22:00:09.587Z,98499.94
2024-01-24T22:02:38.136Z,98508.94
2024-01-24T22:05:08.635Z,98522.06
2024-01-24T22:07:37.091Z,98509.66
2024-01-24T22:10:06.456Z,98503.63
2024-01-24T22:12:34.978Z,98489.19
2024-01-24T22:15:04.013Z,98478.13
2024-01-24T22:17:32.675Z,98469.06
2024-01-24T22:20:01.580Z,98480.91
2024-01-24T22:22:31.529Z,98488.97
2024-01-24T22:24:59.910Z,98486.88
2024-01-24T22:27:28.442Z,98494.28
2024-01-24T22:30:05.103Z,98502.22
2024-01-24T22:32:33.779Z,98487.38
2024-01-24T22:35:03.188Z,98496.19
2024-01-24T22:37:33.719Z,98501.38
2024-01-24T22:40:02.518Z,98514.25
2024-01-24T22:42:30.959Z,98523.03
2024-01-24T22:45:00.060Z,98514.59
2024-01-24T22:47:28.652Z,98513.63
2024-01-24T22:49:57.265Z,98511.72
2024-01-24T22:52:25.773Z,98510.75
2024-01-24T22:54:55.646Z,98504.63
2024-01-24T22:57:24.309Z,98504.88
2024-01-24T22:59:52.654Z,98510.97
2024-01-24T23:02:21.652Z,98502.22
2024-01-24T23:04:50.806Z,98506.06
2024-01-24T23:07:19.358Z,98506.06
2024-01-24T23:09:47.869Z,98506.28
2024-01-24T23:12:20.912Z,98497.78
2024-01-24T23:14:49.295Z,98501.25
2024-01-24T23:17:17.655Z,98495.94
2024-01-24T23:19:46.212Z,98499.44
2024-01-24T23:22:15.436Z,98492.59
2024-01-24T23:24:44.251Z,98493.53
2024-01-24T23:27:12.717Z,98488.38
2024-01-24T23:29:42.537Z,98500.19
2024-01-24T23:32:12.393Z,98500.19
2024-01-24T23:34:40.900Z,98513.78
2024-01-24T23:37:09.466Z,98519.09
2024-01-24T23:39:38.157Z,98509.59
2024-01-24T23:42:06.768Z,98516.56
2024-01-24T23:44:36.098Z,98520.31
2024-01-24T23:47:06.571Z,98514.41
2024-01-24T23:49:35.117Z,98526.78
2024-01-24T23:52:03.960Z,98528.50
2024-01-24T23:54:32.628Z,98534.72
2024-01-24T23:57:01.006Z,98538.00
2024-01-24T23:59:29.437Z,98540.75
